Time;durP1;ratioP1;P1;durP2;ratioP2;P2;SDS_P1;SDS_P2;PMS_P1;PMS_P2;Temp;Humidity;BMP_temperature;BMP_pressure;BME280_temperature;BME280_humidity;BME280_pressure;Samples;Min_cycle;Max_cycle;Signal;HPM_P1;HPM_P2
2022/06/11 00:00:29;;;;;;;1.83;1.40;;;;;;;;;;5088996;28;20200;-58
2022/06/11 00:02:57;;;;;;;1.38;1.27;;;;;;;;;;5095984;28;20285;-58
2022/06/11 00:05:25;;;;;;;1.70;1.20;;;;;;;;;;5095610;28;20199;-58
2022/06/11 00:07:53;;;;;;;1.40;1.30;;;;;;;;;;5096416;28;20199;-58
2022/06/11 00:10:20;;;;;;;1.40;1.30;;;;;;;;;;5096590;28;20211;-59
2022/06/11 00:12:48;;;;;;;1.00;1.00;;;;;;;;;;5095356;28;20284;-59
2022/06/11 00:15:17;;;;;;;1.40;1.30;;;;;;;;;;5095954;28;20195;-59
2022/06/11 00:17:45;;;;;;;1.95;1.20;;;;;;;;;;5096120;28;20227;-59
2022/06/11 00:20:13;;;;;;;1.30;1.20;;;;;;;;;;5096684;28;20485;-59
2022/06/11 00:22:41;;;;;;;1.30;1.20;;;;;;;;;;5096038;28;20204;-59
2022/06/11 00:25:09;;;;;;;1.13;1.02;;;;;;;;;;5096120;28;20199;-59
2022/06/11 00:27:37;;;;;;;1.30;1.20;;;;;;;;;;5096534;28;20203;-59
2022/06/11 00:30:11;;;;;;;1.40;1.30;;;;;;;;;;5096798;28;20247;-59
2022/06/11 00:32:40;;;;;;;1.02;1.02;;;;;;;;;;5096537;28;20613;-59
2022/06/11 00:35:09;;;;;;;1.30;1.20;;;;;;;;;;5096009;28;20514;-59
2022/06/11 00:37:36;;;;;;;1.48;1.20;;;;;;;;;;5096579;28;20282;-59
2022/06/11 00:40:05;;;;;;;1.27;1.20;;;;;;;;;;5096781;28;20203;-59
2022/06/11 00:42:35;;;;;;;1.80;1.10;;;;;;;;;;5096235;28;20594;-58
2022/06/11 00:45:13;;;;;;;1.48;1.38;;;;;;;;;;5097003;28;20211;-58
2022/06/11 00:47:44;;;;;;;1.33;1.23;;;;;;;;;;5095990;28;20234;-58
2022/06/11 00:50:17;;;;;;;1.67;1.20;;;;;;;;;;5096681;28;20326;-58
2022/06/11 00:52:46;;;;;;;1.30;1.20;;;;;;;;;;5096506;28;20306;-58
2022/06/11 00:55:17;;;;;;;1.35;1.20;;;;;;;;;;5097482;28;20567;-59
2022/06/11 00:57:46;;;;;;;1.25;1.20;;;;;;;;;;5099464;28;20207;-59
2022/06/11 01:00:16;;;;;;;1.30;1.20;;;;;;;;;;5100480;28;20204;-59
2022/06/11 01:02:46;;;;;;;1.17;1.08;;;;;;;;;;5100267;28;20196;-59
2022/06/11 01:05:15;;;;;;;1.40;1.30;;;;;;;;;;5099839;28;20206;-59
2022/06/11 01:07:57;;;;;;;1.30;1.30;;;;;;;;;;5099596;28;20770;-59
2022/06/11 01:10:30;;;;;;;1.20;1.10;;;;;;;;;;5096752;28;20570;-59
2022/06/11 01:13:01;;;;;;;1.25;1.20;;;;;;;;;;5100464;28;20237;-59
2022/06/11 01:15:31;;;;;;;1.40;1.30;;;;;;;;;;5099805;28;20204;-59
2022/06/11 01:18:07;;;;;;;1.50;1.40;;;;;;;;;;5100664;28;20535;-59
2022/06/11 01:20:41;;;;;;;1.35;1.20;;;;;;;;;;5099928;28;20213;-59
2022/06/11 01:23:26;;;;;;;1.45;1.35;;;;;;;;;;5100560;28;20196;-59
2022/06/11 01:25:58;;;;;;;1.30;1.20;;;;;;;;;;5085013;28;20203;-59
2022/06/11 01:28:41;;;;;;;1.35;1.25;;;;;;;;;;5100117;28;20504;-59
2022/06/11 01:31:14;;;;;;;1.50;1.40;;;;;;;;;;5097431;28;20203;-59
2022/06/11 01:33:45;;;;;;;1.40;1.30;;;;;;;;;;5099723;28;20210;-59
2022/06/11 01:36:15;;;;;;;1.40;1.30;;;;;;;;;;5099689;28;20282;-59
2022/06/11 01:38:45;;;;;;;1.58;1.17;;;;;;;;;;5100037;28;20568;-59
2022/06/11 01:41:24;;;;;;;1.50;1.40;;;;;;;;;;5099337;28;20298;-59
2022/06/11 01:43:54;;;;;;;1.38;1.30;;;;;;;;;;5099518;28;20211;-59
2022/06/11 01:46:25;;;;;;;1.50;1.40;;;;;;;;;;5099316;28;20202;-59
2022/06/11 01:48:54;;;;;;;1.40;1.30;;;;;;;;;;5099477;28;20227;-59
2022/06/11 01:51:26;;;;;;;1.20;1.20;;;;;;;;;;5099961;28;20257;-59
2022/06/11 01:54:11;;;;;;;1.48;1.38;;;;;;;;;;5099340;28;20196;-59
2022/06/11 01:56:48;;;;;;;1.48;1.38;;;;;;;;;;5093683;28;20208;-59
2022/06/11 01:59:34;;;;;;;1.58;1.48;;;;;;;;;;5099457;28;20203;-59
2022/06/11 02:02:12;;;;;;;1.70;1.60;;;;;;;;;;5099929;28;20199;-59
2022/06/11 02:04:46;;;;;;;1.40;1.30;;;;;;;;;;5099302;28;20200;-59
2022/06/11 02:07:18;;;;;;;1.40;1.30;;;;;;;;;;5099170;28;20211;-59
2022/06/11 02:09:49;;;;;;;1.50;1.40;;;;;;;;;;5098125;28;20257;-60
2022/06/11 02:12:22;;;;;;;1.40;1.30;;;;;;;;;;5099022;28;20219;-59
2022/06/11 02:14:51;;;;;;;1.50;1.15;;;;;;;;;;5098739;28;20302;-59
2022/06/11 02:17:22;;;;;;;1.40;1.30;;;;;;;;;;5099231;28;20196;-60
2022/06/11 02:19:52;;;;;;;1.30;1.30;;;;;;;;;;5099954;28;20204;-59
2022/06/11 02:22:22;;;;;;;1.52;1.42;;;;;;;;;;5099642;28;20224;-59
2022/06/11 02:24:51;;;;;;;1.13;1.13;;;;;;;;;;5100178;28;20212;-59
2022/06/11 02:27:21;;;;;;;1.48;1.38;;;;;;;;;;5099266;28;20227;-59
2022/06/11 02:29:49;;;;;;;1.30;1.20;;;;;;;;;;5099072;28;20204;-59
2022/06/11 02:32:19;;;;;;;1.40;1.30;;;;;;;;;;5099197;28;20508;-59
2022/06/11 02:34:54;;;;;;;1.27;1.17;;;;;;;;;;5099090;28;20291;-59
2022/06/11 02:37:23;;;;;;;1.25;1.10;;;;;;;;;;5099147;28;20225;-59
2022/06/11 02:39:52;;;;;;;1.50;1.40;;;;;;;;;;5098606;28;20208;-59
2022/06/11 02:42:21;;;;;;;1.30;1.20;;;;;;;;;;5098434;28;20200;-59
2022/06/11 02:44:48;;;;;;;1.63;1.30;;;;;;;;;;5097850;28;20195;-59
2022/06/11 02:47:16;;;;;;;1.38;1.27;;;;;;;;;;5098880;28;20208;-59
2022/06/11 02:49:44;;;;;;;1.30;1.20;;;;;;;;;;5098465;28;20238;-59
2022/06/11 02:52:15;;;;;;;1.20;1.20;;;;;;;;;;5098600;28;20224;-59
2022/06/11 02:54:44;;;;;;;1.35;1.25;;;;;;;;;;5099058;28;20203;-59
2022/06/11 02:57:14;;;;;;;1.30;1.20;;;;;;;;;;5098632;28;20582;-59
2022/06/11 02:59:42;;;;;;;1.48;1.38;;;;;;;;;;5099591;28;20441;-59
2022/06/11 03:02:10;;;;;;;1.60;1.30;;;;;;;;;;5098743;28;20203;-59
2022/06/11 03:04:38;;;;;;;1.45;1.35;;;;;;;;;;5098711;28;20210;-59
2022/06/11 03:07:08;;;;;;;1.65;1.40;;;;;;;;;;5098419;28;20199;-59
2022/06/11 03:09:38;;;;;;;1.48;1.38;;;;;;;;;;5098319;28;20203;-59
2022/06/11 03:12:06;;;;;;;1.17;1.05;;;;;;;;;;5097647;28;20247;-59
2022/06/11 03:14:34;;;;;;;1.58;1.30;;;;;;;;;;5098278;28;20253;-59
2022/06/11 03:17:02;;;;;;;1.52;1.42;;;;;;;;;;5098237;28;20590;-59
2022/06/11 03:19:29;;;;;;;1.30;1.20;;;;;;;;;;5097836;28;20199;-59
2022/06/11 03:21:57;;;;;;;1.45;1.35;;;;;;;;;;5098511;28;20200;-59
2022/06/11 03:24:25;;;;;;;1.30;1.30;;;;;;;;;;5098627;28;20204;-59
2022/06/11 03:26:54;;;;;;;1.20;1.20;;;;;;;;;;5098255;28;20214;-59
2022/06/11 03:29:22;;;;;;;1.30;1.20;;;;;;;;;;5098539;28;20208;-59
2022/06/11 03:31:49;;;;;;;1.50;1.40;;;;;;;;;;5098429;28;20204;-59
2022/06/11 03:34:18;;;;;;;1.30;1.20;;;;;;;;;;5097749;28;20200;-59
2022/06/11 03:36:46;;;;;;;1.55;1.30;;;;;;;;;;5098038;28;20259;-59
2022/06/11 03:39:15;;;;;;;1.30;1.30;;;;;;;;;;5097835;28;20200;-59
2022/06/11 03:41:43;;;;;;;1.38;1.27;;;;;;;;;;5098336;28;20204;-59
2022/06/11 03:44:12;;;;;;;1.20;1.20;;;;;;;;;;5098067;28;20496;-59
2022/06/11 03:46:39;;;;;;;1.42;1.33;;;;;;;;;;5098361;28;20249;-59
2022/06/11 03:49:07;;;;;;;1.27;1.20;;;;;;;;;;5097397;28;20246;-59
2022/06/11 03:51:35;;;;;;;2.05;1.30;;;;;;;;;;5097982;28;20298;-59
2022/06/11 03:54:03;;;;;;;1.40;1.30;;;;;;;;;;5097711;28;20220;-59
2022/06/11 03:56:30;;;;;;;1.33;1.23;;;;;;;;;;5098157;28;20302;-59
2022/06/11 03:58:58;;;;;;;1.67;1.58;;;;;;;;;;5097349;28;20210;-59
2022/06/11 04:01:28;;;;;;;2.15;1.25;;;;;;;;;;5097478;28;20572;-59
2022/06/11 04:03:57;;;;;;;1.30;1.30;;;;;;;;;;5097370;28;20196;-59
2022/06/11 04:06:27;;;;;;;1.30;1.20;;;;;;;;;;5097603;28;20207;-59
2022/06/11 04:08:54;;;;;;;1.20;1.20;;;;;;;;;;5097346;28;20234;-59
2022/06/11 04:11:22;;;;;;;1.42;1.30;;;;;;;;;;5097932;28;20211;-59
2022/06/11 04:13:50;;;;;;;1.30;1.20;;;;;;;;;;5097117;28;20228;-59
2022/06/11 04:16:21;;;;;;;1.45;1.35;;;;;;;;;;5097437;28;20510;-59
2022/06/11 04:18:51;;;;;;;1.50;1.30;;;;;;;;;;5097382;28;20303;-59
2022/06/11 04:21:19;;;;;;;1.50;1.40;;;;;;;;;;5097582;28;20214;-59
2022/06/11 04:23:48;;;;;;;1.15;1.15;;;;;;;;;;5097240;28;20207;-59
2022/06/11 04:26:17;;;;;;;1.30;1.27;;;;;;;;;;5096153;28;20252;-59
2022/06/11 04:28:45;;;;;;;1.50;1.40;;;;;;;;;;5097113;28;20575;-59
2022/06/11 04:31:15;;;;;;;1.38;1.30;;;;;;;;;;5097227;28;20314;-59
2022/06/11 04:33:42;;;;;;;1.10;1.10;;;;;;;;;;5101704;28;20310;-59
2022/06/11 04:36:11;;;;;;;1.55;1.20;;;;;;;;;;5101525;28;20207;-59
2022/06/11 04:38:39;;;;;;;1.50;1.40;;;;;;;;;;5101482;28;20265;-59
2022/06/11 04:41:08;;;;;;;1.20;1.10;;;;;;;;;;5101870;28;20286;-59
2022/06/11 04:43:36;;;;;;;1.40;1.30;;;;;;;;;;5101360;28;20188;-59
2022/06/11 04:46:04;;;;;;;1.17;1.17;;;;;;;;;;5101785;28;20207;-59
2022/06/11 04:48:32;;;;;;;1.17;1.10;;;;;;;;;;5101046;28;20247;-59
2022/06/11 04:50:59;;;;;;;1.40;1.30;;;;;;;;;;5101529;28;20313;-59
2022/06/11 04:53:28;;;;;;;1.35;1.20;;;;;;;;;;5093073;28;20269;-59
2022/06/11 04:55:56;;;;;;;1.20;1.20;;;;;;;;;;5101395;28;20200;-59
2022/06/11 04:58:24;;;;;;;1.38;1.27;;;;;;;;;;5100567;28;20599;-59
2022/06/11 05:00:51;;;;;;;1.15;1.15;;;;;;;;;;5101495;28;20203;-59
2022/06/11 05:03:19;;;;;;;1.27;1.20;;;;;;;;;;5100986;28;20238;-59
2022/06/11 05:05:47;;;;;;;1.63;1.52;;;;;;;;;;5101190;28;20481;-59
2022/06/11 05:08:15;;;;;;;1.30;1.20;;;;;;;;;;5100441;28;20286;-59
2022/06/11 05:10:45;;;;;;;1.40;1.30;;;;;;;;;;5100812;28;20200;-59
2022/06/11 05:13:12;;;;;;;1.40;1.30;;;;;;;;;;5100214;28;20784;-59
2022/06/11 05:15:41;;;;;;;1.35;1.25;;;;;;;;;;5100638;28;20245;-59
2022/06/11 05:18:09;;;;;;;1.33;1.30;;;;;;;;;;5100199;28;20210;-59
2022/06/11 05:20:36;;;;;;;1.38;1.27;;;;;;;;;;5100685;28;20237;-59
2022/06/11 05:23:05;;;;;;;1.40;1.30;;;;;;;;;;5100791;28;20274;-59
2022/06/11 05:25:34;;;;;;;1.40;1.30;;;;;;;;;;5100842;28;20551;-59
2022/06/11 05:28:04;;;;;;;1.27;1.20;;;;;;;;;;5099851;28;20200;-59
2022/06/11 05:30:33;;;;;;;1.30;1.23;;;;;;;;;;5100216;28;20222;-59
2022/06/11 05:33:01;;;;;;;1.40;1.30;;;;;;;;;;5100335;28;20231;-59
2022/06/11 05:35:30;;;;;;;1.30;1.20;;;;;;;;;;5099658;28;20199;-59
2022/06/11 05:38:00;;;;;;;1.55;1.45;;;;;;;;;;5099893;28;20257;-59
2022/06/11 05:40:28;;;;;;;1.20;1.20;;;;;;;;;;5100563;28;20239;-59
2022/06/11 05:42:56;;;;;;;1.30;1.20;;;;;;;;;;5081963;28;20264;-59
2022/06/11 05:45:29;;;;;;;1.40;1.30;;;;;;;;;;5100318;28;20575;-63
2022/06/11 05:47:57;;;;;;;1.30;1.20;;;;;;;;;;5099900;28;20211;-59
2022/06/11 05:50:27;;;;;;;1.40;1.30;;;;;;;;;;5091460;28;20470;-59
2022/06/11 05:52:55;;;;;;;1.20;1.20;;;;;;;;;;5099719;28;20226;-59
2022/06/11 05:55:25;;;;;;;1.35;1.30;;;;;;;;;;5099996;28;20670;-59
2022/06/11 05:57:54;;;;;;;1.20;1.20;;;;;;;;;;5099448;28;20207;-59
2022/06/11 06:00:23;;;;;;;1.20;1.20;;;;;;;;;;5099387;28;20214;-59
2022/06/11 06:02:52;;;;;;;1.20;1.20;;;;;;;;;;5099584;28;20204;-59
2022/06/11 06:05:22;;;;;;;1.30;1.30;;;;;;;;;;5099035;28;20289;-59
2022/06/11 06:07:50;;;;;;;1.45;1.35;;;;;;;;;;5099850;28;20234;-59
2022/06/11 06:10:18;;;;;;;1.25;1.25;;;;;;;;;;5099543;28;20207;-59
2022/06/11 06:12:45;;;;;;;1.10;1.10;;;;;;;;;;5099091;28;20594;-59
2022/06/11 06:15:14;;;;;;;1.50;1.40;;;;;;;;;;5099163;28;20204;-59
2022/06/11 06:17:43;;;;;;;1.00;1.00;;;;;;;;;;5083929;28;20261;-59
2022/06/11 06:20:14;;;;;;;1.40;1.30;;;;;;;;;;5098675;28;20203;-59
2022/06/11 06:22:41;;;;;;;1.48;1.35;;;;;;;;;;5098294;28;20306;-59
2022/06/11 06:25:10;;;;;;;1.38;1.27;;;;;;;;;;5098961;28;20294;-59
2022/06/11 06:27:39;;;;;;;1.40;1.30;;;;;;;;;;5098147;28;20234;-59
2022/06/11 06:30:07;;;;;;;1.30;1.30;;;;;;;;;;5098122;28;20230;-59
2022/06/11 06:32:35;;;;;;;1.20;1.20;;;;;;;;;;5098149;28;20203;-59
2022/06/11 06:35:03;;;;;;;1.55;1.40;;;;;;;;;;5097747;28;20336;-59
2022/06/11 06:37:33;;;;;;;1.33;1.23;;;;;;;;;;5098307;28;20598;-59
2022/06/11 06:40:01;;;;;;;1.30;1.20;;;;;;;;;;5097432;28;20537;-59
2022/06/11 06:42:28;;;;;;;1.33;1.23;;;;;;;;;;5097408;28;20542;-59
2022/06/11 06:44:58;;;;;;;1.50;1.40;;;;;;;;;;5096067;28;20198;-59
2022/06/11 06:47:25;;;;;;;1.40;1.30;;;;;;;;;;5097241;28;20206;-59
2022/06/11 06:49:53;;;;;;;1.33;1.23;;;;;;;;;;5097239;28;20239;-59
2022/06/11 06:52:21;;;;;;;1.40;1.30;;;;;;;;;;5096570;28;20210;-59
2022/06/11 06:54:50;;;;;;;1.30;1.30;;;;;;;;;;5096032;28;20491;-59
2022/06/11 06:57:18;;;;;;;1.30;1.20;;;;;;;;;;5096807;28;20274;-59
2022/06/11 06:59:46;;;;;;;1.35;1.25;;;;;;;;;;5096889;28;20195;-59
2022/06/11 07:02:14;;;;;;;1.50;1.40;;;;;;;;;;5097492;28;20248;-59
2022/06/11 07:04:41;;;;;;;1.17;1.13;;;;;;;;;;5097054;28;20575;-59
2022/06/11 07:07:10;;;;;;;1.38;1.27;;;;;;;;;;5096866;28;20321;-59
2022/06/11 07:09:37;;;;;;;1.30;1.20;;;;;;;;;;5096837;28;20206;-59
2022/06/11 07:12:07;;;;;;;1.30;1.20;;;;;;;;;;5097769;28;20430;-59
2022/06/11 07:14:35;;;;;;;1.63;1.40;;;;;;;;;;5096671;28;20234;-59
2022/06/11 07:17:05;;;;;;;1.45;1.25;;;;;;;;;;5096445;28;20199;-59
2022/06/11 07:19:34;;;;;;;1.10;1.10;;;;;;;;;;5095810;28;20206;-59
2022/06/11 07:22:05;;;;;;;1.20;1.20;;;;;;;;;;5097050;28;20282;-59
2022/06/11 07:24:33;;;;;;;1.50;1.40;;;;;;;;;;5097562;28;20200;-59
2022/06/11 07:27:04;;;;;;;1.40;1.30;;;;;;;;;;5096987;28;20203;-59
2022/06/11 07:29:36;;;;;;;1.08;1.08;;;;;;;;;;5098109;28;20206;-59
2022/06/11 07:32:06;;;;;;;1.17;1.17;;;;;;;;;;5096757;28;20614;-59
2022/06/11 07:34:35;;;;;;;1.23;1.20;;;;;;;;;;5095894;28;20226;-59
2022/06/11 07:37:03;;;;;;;1.65;1.30;;;;;;;;;;5096588;28;20206;-59
2022/06/11 07:39:31;;;;;;;1.40;1.30;;;;;;;;;;5097470;28;20210;-59
2022/06/11 07:41:59;;;;;;;1.50;1.40;;;;;;;;;;5097467;28;20280;-59
2022/06/11 07:44:26;;;;;;;1.40;1.30;;;;;;;;;;5095774;28;20486;-59
2022/06/11 07:46:55;;;;;;;1.40;1.30;;;;;;;;;;5095403;28;20191;-59
2022/06/11 07:49:23;;;;;;;1.50;1.40;;;;;;;;;;5095307;28;20238;-59
2022/06/11 07:51:51;;;;;;;1.40;1.30;;;;;;;;;;5095721;28;20639;-59
2022/06/11 07:54:19;;;;;;;1.40;1.30;;;;;;;;;;5095911;28;20231;-59
2022/06/11 07:56:46;;;;;;;1.30;1.30;;;;;;;;;;5096401;28;20298;-59
2022/06/11 07:59:14;;;;;;;1.30;1.20;;;;;;;;;;5096188;28;20652;-58
2022/06/11 08:01:41;;;;;;;1.60;1.50;;;;;;;;;;5094928;28;20322;-59
2022/06/11 08:04:11;;;;;;;1.50;1.40;;;;;;;;;;5094920;28;20238;-59
2022/06/11 08:06:39;;;;;;;1.13;1.13;;;;;;;;;;5093949;28;20453;-59
2022/06/11 08:09:07;;;;;;;1.35;1.25;;;;;;;;;;5093038;28;20206;-59
2022/06/11 08:11:34;;;;;;;1.50;1.40;;;;;;;;;;5094741;28;20261;-59
2022/06/11 08:14:02;;;;;;;1.45;1.38;;;;;;;;;;5073077;28;20323;-59
2022/06/11 08:16:30;;;;;;;1.38;1.27;;;;;;;;;;5077420;28;20196;-59
2022/06/11 08:18:58;;;;;;;1.50;1.40;;;;;;;;;;5092970;28;20358;-59
2022/06/11 08:21:27;;;;;;;1.30;1.20;;;;;;;;;;5094686;28;20206;-59
2022/06/11 08:23:55;;;;;;;1.60;1.50;;;;;;;;;;5093152;28;20195;-59
2022/06/11 08:26:22;;;;;;;1.55;1.45;;;;;;;;;;5094901;28;20203;-59
2022/06/11 08:28:50;;;;;;;1.40;1.30;;;;;;;;;;5094380;28;20260;-58
2022/06/11 08:31:18;;;;;;;1.95;1.52;;;;;;;;;;5094226;28;20302;-58
2022/06/11 08:33:45;;;;;;;1.40;1.30;;;;;;;;;;5094932;28;20227;-59
2022/06/11 08:36:13;;;;;;;1.60;1.50;;;;;;;;;;5093925;28;20210;-59
2022/06/11 08:38:42;;;;;;;1.20;1.20;;;;;;;;;;5094294;28;20492;-59
2022/06/11 08:41:11;;;;;;;1.23;1.20;;;;;;;;;;5093781;28;20191;-58
2022/06/11 08:43:40;;;;;;;1.77;1.20;;;;;;;;;;5092568;28;20192;-58
2022/06/11 08:46:12;;;;;;;1.25;1.23;;;;;;;;;;5093558;28;20252;-58
2022/06/11 08:48:44;;;;;;;2.08;1.30;;;;;;;;;;5093192;28;20483;-59
2022/06/11 08:51:15;;;;;;;1.33;1.10;;;;;;;;;;5094686;28;20204;-59
2022/06/11 08:53:44;;;;;;;1.40;1.30;;;;;;;;;;5093785;28;20486;-59
2022/06/11 08:56:17;;;;;;;1.27;1.27;;;;;;;;;;5094180;28;20297;-58
2022/06/11 08:58:52;;;;;;;1.35;1.25;;;;;;;;;;5094595;28;20562;-59
2022/06/11 09:01:23;;;;;;;1.25;1.17;;;;;;;;;;5095164;28;20195;-59
2022/06/11 09:04:05;;;;;;;1.23;1.17;;;;;;;;;;5094751;28;20199;-59
2022/06/11 09:06:50;;;;;;;1.10;1.10;;;;;;;;;;5085141;28;20203;-59
2022/06/11 09:09:23;;;;;;;1.40;1.30;;;;;;;;;;5094571;28;20215;-59
2022/06/11 09:11:59;;;;;;;1.17;1.10;;;;;;;;;;5094753;28;20210;-59
2022/06/11 09:14:39;;;;;;;1.35;1.30;;;;;;;;;;5093933;28;20226;-59
2022/06/11 09:17:21;;;;;;;1.20;1.20;;;;;;;;;;5092380;28;20876;-59
2022/06/11 09:20:04;;;;;;;1.38;1.27;;;;;;;;;;5044055;28;20204;-58
2022/06/11 09:22:43;;;;;;;1.30;1.20;;;;;;;;;;5097801;28;20203;-59
2022/06/11 09:25:22;;;;;;;1.23;1.23;;;;;;;;;;5096521;28;20501;-59
2022/06/11 09:27:53;;;;;;;1.25;1.23;;;;;;;;;;5096249;28;20524;-59
2022/06/11 09:30:24;;;;;;;1.40;1.30;;;;;;;;;;5096419;28;20218;-59
2022/06/11 09:32:53;;;;;;;1.40;1.30;;;;;;;;;;5098497;28;20631;-59
2022/06/11 09:35:22;;;;;;;1.20;1.15;;;;;;;;;;5097737;28;20274;-59
2022/06/11 09:37:57;;;;;;;1.23;1.20;;;;;;;;;;5096446;28;20250;-59
2022/06/11 09:40:29;;;;;;;1.40;1.30;;;;;;;;;;5095584;28;20206;-59
2022/06/11 09:43:02;;;;;;;1.48;1.40;;;;;;;;;;5095707;28;20199;-58
2022/06/11 09:45:33;;;;;;;1.98;1.30;;;;;;;;;;5078042;28;20192;-59
2022/06/11 09:48:06;;;;;;;1.20;1.13;;;;;;;;;;5096221;28;20199;-59
2022/06/11 09:50:37;;;;;;;1.30;1.20;;;;;;;;;;5095534;28;20231;-59
2022/06/11 09:53:09;;;;;;;1.23;1.15;;;;;;;;;;5095569;28;20493;-59
2022/06/11 09:55:42;;;;;;;1.48;1.38;;;;;;;;;;5095664;28;20314;-58
2022/06/11 09:58:16;;;;;;;1.58;1.40;;;;;;;;;;5097390;28;20705;-58
2022/06/11 10:00:48;;;;;;;2.05;1.30;;;;;;;;;;5096970;28;20521;-58
2022/06/11 10:03:22;;;;;;;1.55;1.20;;;;;;;;;;5096696;28;20196;-58
2022/06/11 10:05:52;;;;;;;1.40;1.30;;;;;;;;;;5096511;28;20196;-58
2022/06/11 10:08:24;;;;;;;1.63;1.52;;;;;;;;;;5078247;28;20195;-58
2022/06/11 10:10:54;;;;;;;1.42;1.33;;;;;;;;;;5095282;28;20207;-58
2022/06/11 10:13:27;;;;;;;1.40;1.30;;;;;;;;;;5094058;28;20212;-59
2022/06/11 10:15:55;;;;;;;1.40;1.30;;;;;;;;;;5094657;28;20280;-59
2022/06/11 10:18:25;;;;;;;1.40;1.30;;;;;;;;;;5093776;28;20260;-58
2022/06/11 10:20:54;;;;;;;1.20;1.20;;;;;;;;;;5095401;28;20567;-58
2022/06/11 10:23:25;;;;;;;1.48;1.38;;;;;;;;;;5095800;28;20200;-59
2022/06/11 10:25:55;;;;;;;1.30;1.20;;;;;;;;;;5095625;28;20493;-58
2022/06/11 10:28:24;;;;;;;1.73;1.60;;;;;;;;;;5094495;28;20512;-58
2022/06/11 10:30:54;;;;;;;1.30;1.20;;;;;;;;;;5093970;28;20624;-58
2022/06/11 10:33:25;;;;;;;1.60;1.50;;;;;;;;;;5095141;28;20808;-59
2022/06/11 10:35:56;;;;;;;1.92;1.48;;;;;;;;;;5094265;28;20223;-58
2022/06/11 10:38:39;;;;;;;1.60;1.35;;;;;;;;;;5095004;28;20227;-59
2022/06/11 10:41:10;;;;;;;1.27;1.17;;;;;;;;;;5093473;28;20531;-59
2022/06/11 10:43:41;;;;;;;1.48;1.38;;;;;;;;;;5094145;28;20196;-59
2022/06/11 10:46:11;;;;;;;1.40;1.30;;;;;;;;;;5095479;28;20298;-59
2022/06/11 10:48:39;;;;;;;1.45;1.35;;;;;;;;;;5093157;28;20235;-58
2022/06/11 10:51:09;;;;;;;1.52;1.42;;;;;;;;;;5094125;28;20196;-58
2022/06/11 10:53:39;;;;;;;1.40;1.30;;;;;;;;;;5095191;28;20203;-59
2022/06/11 10:56:13;;;;;;;1.40;1.30;;;;;;;;;;5094823;28;20228;-59
2022/06/11 10:58:43;;;;;;;1.55;1.30;;;;;;;;;;5094512;28;20197;-59
2022/06/11 11:01:13;;;;;;;1.50;1.40;;;;;;;;;;5094326;28;20199;-59
2022/06/11 11:03:43;;;;;;;1.60;1.50;;;;;;;;;;5094202;28;20210;-59
2022/06/11 11:06:11;;;;;;;1.20;1.20;;;;;;;;;;5094263;28;20206;-59
2022/06/11 11:08:51;;;;;;;1.48;1.38;;;;;;;;;;5093830;28;20202;-58
2022/06/11 11:11:20;;;;;;;1.45;1.35;;;;;;;;;;5094164;28;20575;-59
2022/06/11 11:13:48;;;;;;;1.50;1.40;;;;;;;;;;5095343;28;20206;-58
2022/06/11 11:16:19;;;;;;;1.45;1.35;;;;;;;;;;5094925;28;20505;-58
2022/06/11 11:18:50;;;;;;;1.58;1.48;;;;;;;;;;5094302;28;20256;-58
2022/06/11 11:21:18;;;;;;;1.60;1.50;;;;;;;;;;5094600;28;20203;-58
2022/06/11 11:23:46;;;;;;;1.60;1.50;;;;;;;;;;5094606;28;20204;-58
2022/06/11 11:26:16;;;;;;;1.38;1.27;;;;;;;;;;5094293;28;20334;-59
2022/06/11 11:28:48;;;;;;;1.73;1.40;;;;;;;;;;5095404;28;20222;-59
2022/06/11 11:31:20;;;;;;;1.33;1.30;;;;;;;;;;5095991;28;20547;-59
2022/06/11 11:33:58;;;;;;;1.50;1.40;;;;;;;;;;5095659;28;20204;-58
2022/06/11 11:36:27;;;;;;;1.50;1.40;;;;;;;;;;5094655;28;20262;-58
2022/06/11 11:39:03;;;;;;;1.40;1.30;;;;;;;;;;5095403;28;20200;-58
2022/06/11 11:41:36;;;;;;;1.75;1.65;;;;;;;;;;5094456;28;20205;-59
2022/06/11 11:44:05;;;;;;;1.45;1.35;;;;;;;;;;5094056;28;20260;-58
2022/06/11 11:46:34;;;;;;;1.67;1.50;;;;;;;;;;5094457;28;20196;-58
2022/06/11 11:49:03;;;;;;;1.60;1.50;;;;;;;;;;5094305;28;20235;-59
2022/06/11 11:51:35;;;;;;;1.65;1.55;;;;;;;;;;5094586;28;20199;-59
2022/06/11 11:54:05;;;;;;;1.80;1.70;;;;;;;;;;5095771;28;20195;-59
2022/06/11 11:56:36;;;;;;;1.52;1.42;;;;;;;;;;5095330;28;20223;-59
2022/06/11 11:59:08;;;;;;;1.67;1.58;;;;;;;;;;5095805;28;20461;-58
2022/06/11 12:01:36;;;;;;;1.60;1.50;;;;;;;;;;5095039;28;20204;-59
2022/06/11 12:04:06;;;;;;;2.67;1.83;;;;;;;;;;5093798;28;20210;-58
2022/06/11 12:06:35;;;;;;;1.90;1.80;;;;;;;;;;5094661;28;20187;-58
2022/06/11 12:09:03;;;;;;;1.60;1.50;;;;;;;;;;5093546;28;20273;-59
2022/06/11 12:11:36;;;;;;;2.03;1.90;;;;;;;;;;5091859;28;20201;-59
2022/06/11 12:14:12;;;;;;;2.10;1.70;;;;;;;;;;5093794;28;20199;-59
2022/06/11 12:16:42;;;;;;;2.35;1.70;;;;;;;;;;5092112;28;20215;-59
2022/06/11 12:19:15;;;;;;;1.90;1.80;;;;;;;;;;5093923;28;20200;-59
2022/06/11 12:21:44;;;;;;;2.55;1.42;;;;;;;;;;5092077;28;20203;-59
2022/06/11 12:24:13;;;;;;;1.58;1.48;;;;;;;;;;5093680;28;20203;-59
2022/06/11 12:26:42;;;;;;;1.85;1.67;;;;;;;;;;5077595;28;20196;-59
2022/06/11 12:29:16;;;;;;;1.92;1.80;;;;;;;;;;5093952;28;20196;-59
2022/06/11 12:31:44;;;;;;;3.28;1.60;;;;;;;;;;5094998;28;20195;-59
2022/06/11 12:34:14;;;;;;;1.95;1.65;;;;;;;;;;5093481;28;20205;-59
2022/06/11 12:36:51;;;;;;;1.75;1.65;;;;;;;;;;5093859;28;20230;-59
2022/06/11 12:39:26;;;;;;;1.80;1.70;;;;;;;;;;5093737;28;20227;-59
2022/06/11 12:41:57;;;;;;;2.33;1.80;;;;;;;;;;5094008;28;20590;-59
2022/06/11 12:44:34;;;;;;;2.40;2.20;;;;;;;;;;5094721;28;20553;-59
2022/06/11 12:47:06;;;;;;;2.20;2.00;;;;;;;;;;5094563;28;20203;-59
2022/06/11 12:49:37;;;;;;;2.53;1.90;;;;;;;;;;5093596;28;20296;-59
2022/06/11 12:52:11;;;;;;;2.00;1.80;;;;;;;;;;5094006;28;20473;-59
2022/06/11 12:54:46;;;;;;;2.25;2.05;;;;;;;;;;5096729;28;20509;-58
2022/06/11 12:57:20;;;;;;;1.83;1.70;;;;;;;;;;5097108;28;20226;-59
2022/06/11 12:59:56;;;;;;;1.80;1.70;;;;;;;;;;5096694;28;20226;-58
2022/06/11 13:02:30;;;;;;;2.10;1.90;;;;;;;;;;5095689;28;20211;-59
2022/06/11 13:05:18;;;;;;;2.47;1.95;;;;;;;;;;5094788;28;20187;-58
2022/06/11 13:07:50;;;;;;;1.90;1.80;;;;;;;;;;5090786;28;20195;-58
2022/06/11 13:10:25;;;;;;;1.70;1.60;;;;;;;;;;5096868;28;20226;-58
2022/06/11 13:12:59;;;;;;;1.90;1.80;;;;;;;;;;5097849;28;20199;-58
2022/06/11 13:15:33;;;;;;;1.67;1.58;;;;;;;;;;5096953;28;20230;-58
2022/06/11 13:18:10;;;;;;;1.70;1.60;;;;;;;;;;5097109;28;20196;-59
2022/06/11 13:20:42;;;;;;;1.77;1.65;;;;;;;;;;5094611;28;20206;-58
2022/06/11 13:23:14;;;;;;;2.05;1.88;;;;;;;;;;5095072;28;20206;-59
2022/06/11 13:25:45;;;;;;;1.60;1.50;;;;;;;;;;5095207;28;20633;-59
2022/06/11 13:28:19;;;;;;;1.98;1.85;;;;;;;;;;5095849;28;20196;-59
2022/06/11 13:30:51;;;;;;;2.10;1.80;;;;;;;;;;5095111;28;20483;-59
2022/06/11 13:33:29;;;;;;;1.98;1.85;;;;;;;;;;5096281;28;20207;-59
2022/06/11 13:36:03;;;;;;;2.03;1.92;;;;;;;;;;5095500;28;20364;-59
2022/06/11 13:38:37;;;;;;;1.85;1.75;;;;;;;;;;5097017;28;20219;-59
2022/06/11 13:41:10;;;;;;;2.58;1.80;;;;;;;;;;5096932;28;20200;-59
2022/06/11 13:43:44;;;;;;;2.20;2.00;;;;;;;;;;5095986;28;20200;-59
2022/06/11 13:46:16;;;;;;;3.00;1.80;;;;;;;;;;5095103;28;20192;-59
2022/06/11 13:48:55;;;;;;;1.92;1.83;;;;;;;;;;5094405;28;20239;-59
2022/06/11 13:51:24;;;;;;;2.30;1.83;;;;;;;;;;5094042;28;20199;-59
2022/06/11 13:56:57;;;;;;;2.33;2.10;;;;;;;;;;5095087;28;20226;-59
2022/06/11 13:59:32;;;;;;;2.10;2.00;;;;;;;;;;5095344;28;20199;-58
2022/06/11 14:02:14;;;;;;;2.22;2.13;;;;;;;;;;5095000;28;20211;-58
2022/06/11 14:04:46;;;;;;;2.30;2.10;;;;;;;;;;5085259;28;20196;-58
2022/06/11 14:07:16;;;;;;;2.10;2.00;;;;;;;;;;5094126;28;20192;-58
2022/06/11 14:12:43;;;;;;;2.28;2.08;;;;;;;;;;5095185;28;20593;-58
2022/06/11 14:15:14;;;;;;;2.28;2.08;;;;;;;;;;5094716;28;20223;-59
2022/06/11 14:17:47;;;;;;;2.20;2.10;;;;;;;;;;5094051;28;20210;-59
2022/06/11 14:20:21;;;;;;;1.85;1.75;;;;;;;;;;5093828;28;20238;-59
2022/06/11 14:22:50;;;;;;;2.20;2.10;;;;;;;;;;5094846;28;20187;-59
2022/06/11 14:25:37;;;;;;;2.00;1.90;;;;;;;;;;5093913;28;20382;-59
2022/06/11 14:28:23;;;;;;;2.10;1.90;;;;;;;;;;5093362;28;20192;-59
2022/06/11 14:31:07;;;;;;;2.50;2.30;;;;;;;;;;5094054;28;20630;-58
2022/06/11 14:33:35;;;;;;;2.03;1.90;;;;;;;;;;5093409;28;20342;-59
2022/06/11 14:36:08;;;;;;;2.10;2.00;;;;;;;;;;5093387;28;20223;-59
2022/06/11 14:38:46;;;;;;;2.28;2.08;;;;;;;;;;5092696;28;20206;-59
2022/06/11 14:41:28;;;;;;;2.03;1.83;;;;;;;;;;5093324;28;20306;-59
2022/06/11 14:44:19;;;;;;;2.22;2.03;;;;;;;;;;5077269;28;20200;-59
2022/06/11 14:46:48;;;;;;;2.15;2.05;;;;;;;;;;5092671;28;20249;-58
2022/06/11 14:49:37;;;;;;;2.28;2.10;;;;;;;;;;5092821;28;20289;-58
2022/06/11 14:52:26;;;;;;;2.10;2.00;;;;;;;;;;5092964;28;20222;-59
2022/06/11 14:55:00;;;;;;;2.22;2.13;;;;;;;;;;5060816;28;20207;-59
2022/06/11 14:57:32;;;;;;;2.17;2.08;;;;;;;;;;5093357;28;20230;-59
2022/06/11 15:00:18;;;;;;;2.30;2.10;;;;;;;;;;5094171;28;20211;-58
2022/06/11 15:03:00;;;;;;;2.03;1.92;;;;;;;;;;5093067;28;20529;-58
2022/06/11 15:05:32;;;;;;;1.98;1.88;;;;;;;;;;5091288;28;20191;-58
2022/06/11 15:08:17;;;;;;;2.38;2.17;;;;;;;;;;5093339;28;20226;-59
2022/06/11 15:10:46;;;;;;;2.90;2.20;;;;;;;;;;5066646;28;20211;-59